Time;durP1;ratioP1;P1;durP2;ratioP2;P2;SDS_P1;SDS_P2;PMS_P1;PMS_P2;Temp;Humidity;BMP_temperature;BMP_pressure;BME280_temperature;BME280_humidity;BME280_pressure;Samples;Min_cycle;Max_cycle;Signal;HPM_P1;HPM_P2
2022/03/19 00:00:51;;;;;;;;;7.00;7.00;;;;;10.13;39.75;102884.31;5064286;28;45473;-80
2022/03/19 00:03:18;;;;;;;;;7.50;5.75;;;;;10.01;39.17;102868.91;5057337;28;45410;-81
2022/03/19 00:05:45;;;;;;;;;6.00;6.00;;;;;10.01;39.32;102874.16;5058478;28;45291;-82
2022/03/19 00:08:11;;;;;;;;;7.00;7.00;;;;;10.09;39.52;102895.56;5067047;28;45465;-80
2022/03/19 00:10:37;;;;;;;;;7.00;7.00;;;;;10.03;39.74;102879.50;5077585;28;46120;-81
2022/03/19 00:13:03;;;;;;;;;11.50;8.00;;;;;9.84;39.17;102854.97;5059086;28;45452;-79
2022/03/19 00:15:28;;;;;;;;;5.50;5.50;;;;;9.99;39.28;102889.91;5057499;28;45408;-77
2022/03/19 00:17:56;;;;;;;;;4.00;4.00;;;;;10.03;39.06;102897.91;5064655;28;45564;-78
2022/03/19 00:20:21;;;;;;;;;6.75;6.75;;;;;10.01;39.25;102887.31;5061256;28;47089;-79
2022/03/19 00:22:47;;;;;;;;;6.75;6.75;;;;;9.88;39.11;102869.19;5068580;28;45477;-81
2022/03/19 00:25:13;;;;;;;;;9.50;7.75;;;;;9.97;39.54;102895.94;5057562;28;45547;-77
2022/03/19 00:27:40;;;;;;;;;6.75;6.75;;;;;9.85;38.81;102880.47;5060412;28;45425;-79
2022/03/19 00:30:06;;;;;;;;;6.25;6.25;;;;;9.91;39.16;102888.66;5060951;28;46294;-80
2022/03/19 00:32:32;;;;;;;;;9.25;8.00;;;;;9.90;39.02;102885.97;5065050;28;45322;-78
2022/03/19 00:34:57;;;;;;;;;4.00;4.00;;;;;9.89;39.36;102890.31;5057790;28;45355;-78
2022/03/19 00:37:23;;;;;;;;;8.25;5.00;;;;;9.88;39.44;102892.91;5057279;28;45440;-78
2022/03/19 00:39:49;;;;;;;;;7.25;7.25;;;;;9.86;39.29;102886.63;5067146;28;46200;-79
2022/03/19 00:42:14;;;;;;;;;5.50;5.50;;;;;9.81;39.08;102882.91;5056732;28;45354;-80
2022/03/19 00:44:39;;;;;;;;;6.00;6.00;;;;;9.80;38.80;102889.00;5056915;28;45389;-77
2022/03/19 00:47:05;;;;;;;;;6.75;6.25;;;;;9.84;39.03;102890.94;5057339;28;45450;-79
2022/03/19 00:49:30;;;;;;;;;3.00;2.00;;;;;9.77;39.13;102878.31;5079883;27;46227;-79
2022/03/19 00:51:56;;;;;;;;;5.00;5.00;;;;;9.78;39.06;102878.41;5060617;28;45397;-77
2022/03/19 00:54:21;;;;;;;;;5.75;5.75;;;;;9.78;38.96;102883.69;5056775;28;45480;-77
2022/03/19 00:56:47;;;;;;;;;6.50;4.50;;;;;9.78;39.13;102890.69;5057230;28;45411;-79
2022/03/19 00:59:13;;;;;;;;;5.50;4.25;;;;;9.73;39.04;102876.41;5040544;28;45890;-79
2022/03/19 01:01:39;;;;;;;;;5.50;5.50;;;;;9.64;39.19;102858.47;5035756;28;45698;-78
2022/03/19 01:04:04;;;;;;;;;10.50;6.75;;;;;9.58;39.32;102856.44;5036966;28;45567;-80
2022/03/19 01:06:30;;;;;;;;;4.50;4.50;;;;;9.66;38.89;102868.22;5036215;28;45485;-79
2022/03/19 01:08:55;;;;;;;;;5.00;4.00;;;;;9.66;39.23;102867.31;5044982;28;46523;-77
2022/03/19 01:11:23;;;;;;;;;7.00;6.50;;;;;9.57;39.62;102867.81;5052675;28;45447;-80
2022/03/19 01:13:50;;;;;;;;;3.50;3.50;;;;;9.61;39.24;102867.13;5054383;28;45422;-79
2022/03/19 01:16:18;;;;;;;;;5.50;4.50;;;;;9.55;39.36;102866.84;5056733;28;45393;-79
2022/03/19 01:18:44;;;;;;;;;7.50;6.00;;;;;9.56;39.29;102865.09;5056575;28;47397;-78
2022/03/19 01:21:09;;;;;;;;;3.00;3.00;;;;;9.56;39.53;102866.00;5054786;28;45698;-78
2022/03/19 01:23:35;;;;;;;;;5.50;3.00;;;;;9.50;39.17;102862.22;5041892;28;45426;-79
2022/03/19 01:26:01;;;;;;;;;4.00;4.00;;;;;9.52;39.21;102857.91;5051660;28;45387;-78
2022/03/19 01:28:26;;;;;;;;;3.75;2.75;;;;;9.49;39.31;102866.53;5036302;28;46853;-79
2022/03/19 01:30:51;;;;;;;;;3.00;3.00;;;;;9.46;39.34;102861.16;5040631;28;45378;-80
2022/03/19 01:33:17;;;;;;;;;7.00;5.00;;;;;9.47;39.25;102862.94;5040227;28;45295;-79
2022/03/19 01:35:42;;;;;;;;;3.00;3.00;;;;;9.44;39.12;102854.94;5040458;28;45332;-81
2022/03/19 01:38:07;;;;;;;;;4.00;3.75;;;;;9.33;39.66;102835.13;5056792;28;46120;-79
2022/03/19 01:40:33;;;;;;;;;3.25;3.25;;;;;9.41;39.39;102844.28;5039193;28;45572;-79
2022/03/19 01:43:00;;;;;;;;;4.00;4.00;;;;;9.38;39.50;102841.47;5039576;28;45418;-79
2022/03/19 01:45:25;;;;;;;;;5.00;3.50;;;;;9.28;39.32;102823.47;5039300;28;45439;-80
2022/03/19 01:47:53;;;;;;;;;3.00;3.00;;;;;9.31;39.23;102844.69;5040669;28;46917;-77
2022/03/19 01:50:21;;;;;;;;;4.50;3.25;;;;;9.28;39.60;102836.63;5042745;28;45219;-81
2022/03/19 01:52:47;;;;;;;;;7.25;3.00;;;;;9.27;39.29;102842.72;5039246;28;45465;-80
2022/03/19 01:55:14;;;;;;;;;3.00;2.50;;;;;9.10;39.25;102819.16;5039197;28;45325;-78
2022/03/19 01:57:44;;;;;;;;;3.00;3.00;;;;;9.20;39.57;102836.28;5052732;28;47310;-79
2022/03/19 02:00:17;;;;;;;;;4.00;4.00;;;;;9.23;39.54;102846.97;5059579;28;45518;-77
2022/03/19 02:02:44;;;;;;;;;4.50;4.00;;;;;9.21;39.63;102842.44;5043242;28;46277;-79
2022/03/19 02:05:15;;;;;;;;;3.00;3.00;;;;;9.01;39.71;102804.69;5039060;28;45402;-80
2022/03/19 02:07:42;;;;;;;;;5.00;2.00;;;;;9.16;39.65;102830.81;5054873;28;45994;-79
2022/03/19 02:10:09;;;;;;;;;4.50;4.50;;;;;9.14;39.81;102830.75;5058166;28;45507;-79
2022/03/19 02:12:35;;;;;;;;;7.00;6.75;;;;;9.08;39.67;102817.31;5056210;28;45511;-77
2022/03/19 02:15:02;;;;;;;;;6.00;3.50;;;;;9.12;40.10;102829.78;5022773;28;45484;-79
2022/03/19 02:17:27;;;;;;;;;4.50;4.00;;;;;9.08;39.60;102827.81;5029267;28;47225;-77
2022/03/19 02:19:55;;;;;;;;;6.00;6.00;;;;;9.01;39.97;102817.84;5059554;28;45211;-79
2022/03/19 02:22:23;;;;;;;;;3.75;3.75;;;;;9.05;39.84;102825.06;5046806;28;45302;-80
2022/03/19 02:27:34;;;;;;;;;3.75;2.50;;;;;8.98;39.96;102815.06;5039680;28;45266;-78
2022/03/19 02:30:01;;;;;;;;;5.00;5.00;;;;;8.93;40.13;102804.31;5049012;28;45472;-78
2022/03/19 02:32:26;;;;;;;;;4.50;3.00;;;;;8.97;40.33;102813.28;5050188;28;45386;-78
2022/03/19 02:34:52;;;;;;;;;7.75;5.50;;;;;8.92;40.05;102809.50;5027225;28;46069;-79
2022/03/19 02:37:18;;;;;;;;;7.50;6.00;;;;;8.84;40.20;102788.13;5043179;28;45973;-77
2022/03/19 02:39:44;;;;;;;;;3.00;3.00;;;;;8.91;40.37;102798.09;5059336;28;45390;-79
2022/03/19 02:42:09;;;;;;;;;7.00;7.00;;;;;8.89;40.78;102801.50;5043899;28;45418;-78
2022/03/19 02:44:36;;;;;;;;;4.50;4.50;;;;;8.88;40.25;102803.22;5047643;28;45378;-79
2022/03/19 02:47:05;;;;;;;;;7.50;5.50;;;;;8.87;40.39;102801.44;5042032;28;46265;-80
2022/03/19 02:49:30;;;;;;;;;4.25;4.25;;;;;8.85;40.47;102806.63;5040888;28;45386;-81
2022/03/19 02:51:56;;;;;;;;;4.50;4.25;;;;;8.80;40.55;102789.72;5030161;28;45369;-78
2022/03/19 02:54:24;;;;;;;;;5.25;4.00;;;;;8.83;40.74;102791.59;5038394;28;45604;-79
2022/03/19 02:56:51;;;;;;;;;3.75;3.75;;;;;8.79;40.69;102790.56;5039723;28;46182;-78
2022/03/19 02:59:17;;;;;;;;;6.00;6.00;;;;;8.72;41.27;102787.56;5037227;28;45520;-81
2022/03/19 03:02:00;;;;;;;;;7.50;7.00;;;;;8.74;40.85;102799.94;5038488;28;45440;-77
2022/03/19 03:04:27;;;;;;;;;7.50;6.00;;;;;8.65;40.95;102774.94;5038453;28;45529;-80
2022/03/19 03:06:56;;;;;;;;;9.00;6.75;;;;;8.70;41.07;102790.13;5040023;28;45446;-80
2022/03/19 03:09:24;;;;;;;;;2.50;2.25;;;;;8.70;41.28;102795.38;5040004;28;45347;-80
2022/03/19 03:11:50;;;;;;;;;7.00;7.00;;;;;8.70;41.15;102794.47;5036796;28;45720;-81
2022/03/19 03:14:18;;;;;;;;;6.00;5.50;;;;;8.65;41.32;102780.19;5038189;28;45323;-81
2022/03/19 03:16:43;;;;;;;;;5.75;5.75;;;;;8.68;41.64;102786.53;5038284;28;47329;-78
2022/03/19 03:19:11;;;;;;;;;6.25;6.25;;;;;8.67;41.27;102791.72;5038511;28;45370;-80
2022/03/19 03:21:39;;;;;;;;;6.25;6.25;;;;;8.66;41.91;102793.44;5038423;28;45462;-80
2022/03/19 03:24:05;;;;;;;;;5.75;5.75;;;;;8.64;42.09;102783.66;5038517;28;45281;-79
2022/03/19 03:26:31;;;;;;;;;6.00;6.00;;;;;8.62;41.73;102791.47;5036974;28;46193;-80
2022/03/19 03:28:58;;;;;;;;;8.25;8.25;;;;;8.59;42.10;102793.06;5037888;28;45323;-80
2022/03/19 03:31:24;;;;;;;;;10.75;10.00;;;;;8.46;41.64;102771.44;5037305;28;45502;-81
2022/03/19 03:33:50;;;;;;;;;9.50;8.00;;;;;8.49;41.52;102768.06;5037874;28;45362;-79
2022/03/19 03:36:15;;;;;;;;;5.00;5.00;;;;;8.47;41.55;102759.22;5037311;28;47170;-81
2022/03/19 03:38:41;;;;;;;;;6.25;6.25;;;;;8.54;41.75;102751.69;5037596;28;45393;-80
2022/03/19 03:41:07;;;;;;;;;8.50;8.50;;;;;8.49;41.88;102747.97;5036969;28;45256;-80
2022/03/19 03:43:33;;;;;;;;;10.75;7.75;;;;;8.50;42.43;102749.75;5039112;28;45351;-80
2022/03/19 03:45:58;;;;;;;;;8.00;7.00;;;;;8.44;42.22;102743.31;5036784;28;46553;-77
2022/03/19 03:48:24;;;;;;;;;8.75;4.50;;;;;8.48;42.24;102761.91;5037208;28;46140;-80
2022/03/19 03:50:52;;;;;;;;;8.50;7.00;;;;;8.40;42.40;102757.13;5037228;28;45318;-78
2022/03/19 03:53:18;;;;;;;;;12.25;8.50;;;;;8.36;42.50;102755.16;5037854;28;45465;-77
2022/03/19 03:55:44;;;;;;;;;9.50;8.00;;;;;8.41;42.07;102758.91;5036860;28;45661;-76
2022/03/19 03:58:11;;;;;;;;;7.00;7.00;;;;;8.30;42.98;102734.75;5036634;28;45242;-76
2022/03/19 04:00:37;;;;;;;;;8.25;7.25;;;;;8.31;43.19;102751.38;5037804;28;45512;-76
2022/03/19 04:03:04;;;;;;;;;11.00;8.25;;;;;8.33;43.36;102757.59;5055535;28;45535;-78
2022/03/19 04:05:30;;;;;;;;;8.00;6.75;;;;;8.29;42.91;102761.81;5037397;28;45319;-76
2022/03/19 04:07:55;;;;;;;;;11.00;7.00;;;;;8.27;42.79;102761.72;5036869;28;45442;-77
2022/03/19 04:10:21;;;;;;;;;13.50;9.25;;;;;8.29;43.08;102773.22;5037374;28;45473;-76
2022/03/19 04:12:47;;;;;;;;;12.50;11.75;;;;;8.28;43.53;102779.31;5036655;28;45346;-76
2022/03/19 04:15:12;;;;;;;;;8.00;8.00;;;;;8.25;43.81;102772.97;5037127;28;45484;-75
2022/03/19 04:17:38;;;;;;;;;8.25;8.25;;;;;8.24;43.88;102771.19;5037036;28;45534;-78
2022/03/19 04:20:05;;;;;;;;;9.25;9.25;;;;;8.03;43.69;102733.38;5037698;28;45457;-75
2022/03/19 04:22:44;;;;;;;;;9.00;6.75;;;;;8.12;43.71;102754.84;5036046;28;45220;-76
2022/03/19 04:25:15;;;;;;;;;14.50;12.00;;;;;8.13;44.18;102761.88;5028201;28;46189;-75
2022/03/19 04:27:41;;;;;;;;;11.50;9.25;;;;;8.16;44.86;102762.91;5058827;28;45473;-77
2022/03/19 04:30:08;;;;;;;;;7.00;7.00;;;;;8.11;44.59;102764.44;5036989;28;45304;-76
2022/03/19 04:32:51;;;;;;;;;13.50;11.50;;;;;8.10;44.61;102770.50;5036281;28;45443;-74
2022/03/19 04:38:04;;;;;;;;;13.75;10.25;;;;;8.07;45.40;102769.44;5036221;28;45367;-75
2022/03/19 04:40:30;;;;;;;;;15.50;14.75;;;;;8.00;45.46;102760.34;5036573;28;45381;-75
2022/03/19 04:42:56;;;;;;;;;17.75;16.25;;;;;8.04;44.73;102764.94;5036907;28;47060;-76
2022/03/19 04:45:22;;;;;;;;;14.25;12.25;;;;;8.04;45.35;102769.28;5037857;28;46387;-76
2022/03/19 04:47:48;;;;;;;;;16.50;12.75;;;;;7.98;45.27;102754.13;5036262;28;45425;-75
2022/03/19 04:50:13;;;;;;;;;14.25;14.25;;;;;8.03;45.46;102768.41;5036269;28;45469;-75
2022/03/19 04:52:39;;;;;;;;;18.25;14.25;;;;;8.03;45.29;102762.25;5037102;28;45288;-76
2022/03/19 04:55:07;;;;;;;;;17.00;13.75;;;;;8.00;45.83;102757.72;5039079;28;46295;-78
2022/03/19 04:57:32;;;;;;;;;16.50;12.50;;;;;7.99;45.58;102761.19;5038535;28;45393;-79
2022/03/19 04:59:59;;;;;;;;;10.50;10.50;;;;;7.97;46.00;102755.84;5055227;28;45318;-77
2022/03/19 05:02:24;;;;;;;;;16.50;16.00;;;;;7.93;46.28;102753.91;5056986;28;45262;-77
2022/03/19 05:04:51;;;;;;;;;15.50;15.50;;;;;7.93;46.41;102761.78;5048932;28;46257;-75
2022/03/19 05:07:19;;;;;;;;;16.50;12.25;;;;;7.89;47.10;102753.66;5036589;28;45399;-78
2022/03/19 05:12:31;;;;;;;;;15.75;14.75;;;;;7.86;47.00;102751.78;5060651;28;45299;-75
2022/03/19 05:14:57;;;;;;;;;29.50;18.00;;;;;7.87;47.33;102761.47;5051400;28;47118;-77
2022/03/19 05:17:23;;;;;;;;;10.00;8.00;;;;;7.83;46.98;102756.00;5022790;28;45267;-74
2022/03/19 05:19:48;;;;;;;;;19.75;17.75;;;;;7.80;47.74;102754.09;5050848;28;45379;-77
2022/03/19 05:22:13;;;;;;;;;18.50;16.75;;;;;7.72;47.31;102753.72;5060258;28;45310;-78
2022/03/19 05:24:39;;;;;;;;;21.25;19.25;;;;;7.78;47.63;102768.88;5045350;28;46330;-78
2022/03/19 05:27:04;;;;;;;;;18.50;17.25;;;;;7.70;47.39;102750.09;5042005;28;45350;-79
2022/03/19 05:29:32;;;;;;;;;26.50;21.50;;;;;7.73;47.68;102765.13;5040510;28;45347;-78
2022/03/19 05:31:58;;;;;;;;;23.00;20.75;;;;;7.71;48.63;102767.63;5056498;28;45332;-75
2022/03/19 05:34:30;;;;;;;;;26.25;22.50;;;;;7.67;49.06;102764.81;5043280;28;45309;-77
2022/03/19 05:36:56;;;;;;;;;28.00;20.50;;;;;7.70;48.79;102772.81;5040242;28;45295;-79
2022/03/19 05:39:21;;;;;;;;;20.75;17.00;;;;;7.65;48.60;102761.19;5035325;28;45315;-80
2022/03/19 05:41:47;;;;;;;;;22.75;21.00;;;;;7.62;48.97;102753.16;5040250;28;45483;-80
2022/03/19 05:44:13;;;;;;;;;20.25;20.25;;;;;7.65;48.60;102764.72;5055392;28;46296;-79
2022/03/19 05:46:38;;;;;;;;;25.50;21.25;;;;;7.61;49.42;102764.47;5039169;28;45320;-79
2022/03/19 05:49:04;;;;;;;;;26.50;22.25;;;;;7.61;49.51;102754.88;5038669;28;45182;-79
2022/03/19 05:51:30;;;;;;;;;27.50;22.50;;;;;7.63;49.75;102766.38;5040081;28;45453;-80
2022/03/19 05:53:55;;;;;;;;;26.75;24.75;;;;;7.64;50.56;102760.31;5038846;28;45950;-79
2022/03/19 05:56:21;;;;;;;;;31.00;26.50;;;;;7.65;49.36;102764.72;5041371;28;45739;-76
2022/03/19 05:58:46;;;;;;;;;30.00;24.75;;;;;7.58;49.98;102746.84;5046256;28;45184;-80
2022/03/19 06:01:12;;;;;;;;;26.00;24.00;;;;;7.63;50.56;102766.38;5039874;28;45474;-77
2022/03/19 06:03:37;;;;;;;;;30.75;23.50;;;;;7.60;50.60;102763.56;5040478;28;46925;-79
2022/03/19 06:06:03;;;;;;;;;32.25;24.75;;;;;7.63;50.70;102768.06;5040171;28;45390;-74
2022/03/19 06:08:29;;;;;;;;;28.50;28.50;;;;;7.62;50.32;102758.41;5041921;28;45406;-78
2022/03/19 06:10:56;;;;;;;;;35.25;27.75;;;;;7.68;50.72;102766.59;5040750;28;45452;-77
2022/03/19 06:13:21;;;;;;;;;32.00;27.75;;;;;7.66;50.76;102769.16;5056420;28;46567;-78
2022/03/19 06:15:46;;;;;;;;;34.50;29.50;;;;;7.64;50.98;102764.66;5059308;28;45760;-77
2022/03/19 06:18:12;;;;;;;;;33.75;30.00;;;;;7.60;51.08;102755.69;5057114;28;45545;-77
2022/03/19 06:20:37;;;;;;;;;35.50;29.00;;;;;7.64;50.37;102762.03;5038107;28;45476;-80
2022/03/19 06:23:02;;;;;;;;;34.50;29.50;;;;;7.69;50.33;102761.44;5039235;28;45303;-77
2022/03/19 06:25:28;;;;;;;;;36.75;34.00;;;;;7.75;51.41;102773.06;5040299;28;45355;-75
2022/03/19 06:27:53;;;;;;;;;37.00;33.25;;;;;7.77;50.96;102774.94;5046309;28;45388;-79
2022/03/19 06:30:19;;;;;;;;;41.50;33.50;;;;;7.79;51.36;102768.03;5047030;28;45303;-79
2022/03/19 06:32:44;;;;;;;;;34.50;27.50;;;;;7.82;50.58;102775.19;5056714;28;45746;-79
2022/03/19 06:35:10;;;;;;;;;32.75;32.75;;;;;7.85;50.81;102767.47;5038898;28;45495;-80
2022/03/19 06:37:36;;;;;;;;;35.50;32.75;;;;;7.80;51.32;102759.34;5042412;28;45383;-80
2022/03/19 06:40:06;;;;;;;;;41.75;29.75;;;;;7.82;51.08;102759.44;5049864;28;45538;-78
2022/03/19 06:42:33;;;;;;;;;40.00;35.25;;;;;7.87;51.51;102757.94;5038931;28;47001;-75
2022/03/19 06:44:59;;;;;;;;;36.00;29.25;;;;;7.98;51.68;102760.28;5051096;28;45324;-79
2022/03/19 06:47:24;;;;;;;;;43.50;37.50;;;;;7.95;51.91;102738.25;5039071;28;45284;-81
2022/03/19 06:49:50;;;;;;;;;41.25;37.50;;;;;8.04;51.66;102754.44;5022002;28;45639;-81
2022/03/19 06:52:16;;;;;;;;;48.67;40.00;;;;;8.09;51.50;102758.19;5038894;28;45897;-80
2022/03/19 06:54:41;;;;;;;;;45.50;38.00;;;;;8.07;51.17;102762.47;5037904;28;45441;-81
2022/03/19 06:57:07;;;;;;;;;47.25;39.00;;;;;8.13;51.36;102765.41;5022411;28;45249;-80
2022/03/19 06:59:33;;;;;;;;;41.00;33.00;;;;;8.21;51.16;102769.31;5058175;28;45598;-75
2022/03/19 07:01:59;;;;;;;;;42.00;36.75;;;;;8.20;51.38;102767.53;5059283;28;45524;-77
2022/03/19 07:04:24;;;;;;;;;49.67;40.67;;;;;8.27;51.23;102766.06;5057501;28;45463;-79
2022/03/19 07:06:50;;;;;;;;;52.67;44.33;;;;;8.11;51.06;102734.66;5058523;28;45637;-80
2022/03/19 07:09:16;;;;;;;;;50.50;40.25;;;;;8.30;52.25;102782.00;5058706;28;45267;-81
2022/03/19 07:11:42;;;;;;;;;53.00;43.33;;;;;8.38;51.91;102762.31;5058665;28;46072;-80
2022/03/19 07:14:07;;;;;;;;;53.67;44.00;;;;;8.38;51.99;102764.03;5058026;28;45362;-77
2022/03/19 07:16:33;;;;;;;;;52.67;45.00;;;;;8.40;51.91;102752.78;5058768;28;45370;-78
2022/03/19 07:18:58;;;;;;;;;47.25;42.00;;;;;8.52;52.04;102769.09;5058313;28;45490;-78
2022/03/19 07:21:24;;;;;;;;;53.33;44.67;;;;;8.57;51.18;102762.38;5057579;28;46424;-75
2022/03/19 07:23:50;;;;;;;;;57.33;42.00;;;;;8.71;51.96;102768.25;5057984;28;45330;-79
2022/03/19 07:26:16;;;;;;;;;47.25;37.75;;;;;8.75;51.46;102750.94;5056347;28;45464;-75
2022/03/19 07:28:41;;;;;;;;;55.00;42.00;;;;;8.91;51.30;102774.44;5057341;28;45211;-75
2022/03/19 07:31:07;;;;;;;;;57.00;44.33;;;;;8.87;50.94;102758.47;5056130;28;45337;-77
2022/03/19 07:33:36;;;;;;;;;57.67;44.67;;;;;8.97;51.09;102760.72;5055741;28;45402;-77
2022/03/19 07:36:04;;;;;;;;;58.67;45.67;;;;;9.09;51.38;102763.88;5057079;28;45427;-75
2022/03/19 07:38:31;;;;;;;;;57.67;47.00;;;;;9.16;50.67;102765.97;5039157;28;45524;-71
2022/03/19 07:43:41;;;;;;;;;63.67;48.67;;;;;9.25;50.37;102771.66;5056822;28;45226;-78
2022/03/19 07:46:06;;;;;;;;;58.67;44.33;;;;;9.17;50.64;102749.38;5057658;28;45445;-73
2022/03/19 07:48:32;;;;;;;;;55.33;47.00;;;;;9.33;50.45;102769.38;5056292;28;45373;-74
2022/03/19 07:50:57;;;;;;;;;59.00;46.00;;;;;9.44;50.49;102760.22;5056389;28;45438;-77
2022/03/19 07:53:23;;;;;;;;;62.33;47.33;;;;;9.54;50.62;102774.69;5056913;28;45240;-75
2022/03/19 07:55:50;;;;;;;;;52.75;43.00;;;;;9.54;50.12;102754.53;5056132;28;45686;-74
2022/03/19 07:58:16;;;;;;;;;59.00;44.75;;;;;9.72;50.02;102767.59;5056934;28;46789;-76
2022/03/19 08:00:42;;;;;;;;;65.25;49.00;;;;;9.79;50.23;102771.41;5032937;28;47390;-78
2022/03/19 08:03:07;;;;;;;;;62.25;50.00;;;;;9.88;50.05;102759.53;5051840;28;45437;-75
2022/03/19 08:05:32;;;;;;;;;47.00;38.50;;;;;9.95;50.11;102758.94;5046194;28;45437;-73
2022/03/19 08:07:58;;;;;;;;;60.25;49.00;;;;;10.02;49.91;102762.72;5045324;28;45632;-78
2022/03/19 08:10:24;;;;;;;;;61.75;47.50;;;;;10.04;49.58;102761.06;5036562;28;46101;-77
2022/03/19 08:13:01;;;;;;;;;63.50;50.75;;;;;10.13;49.49;102764.06;5037511;28;45445;-78
2022/03/19 08:15:28;;;;;;;;;65.75;50.75;;;;;10.27;49.35;102764.69;5037438;28;45248;-80
2022/03/19 08:17:54;;;;;;;;;60.50;49.00;;;;;10.37;48.85;102758.06;5041771;28;45434;-76
2022/03/19 08:20:19;;;;;;;;;59.75;47.75;;;;;10.37;48.69;102734.34;5017444;28;45410;-79
2022/03/19 08:22:45;;;;;;;;;59.50;47.25;;;;;10.61;48.85;102752.84;5032783;28;45417;-78
2022/03/19 08:25:10;;;;;;;;;66.25;52.25;;;;;10.58;49.14;102719.38;5019029;28;45356;-75
2022/03/19 08:27:37;;;;;;;;;59.00;47.50;;;;;10.84;48.50;102746.75;5034473;28;45371;-79
2022/03/19 08:30:03;;;;;;;;;64.25;52.00;;;;;10.90;48.11;102743.47;5043879;28;46475;-75
2022/03/19 08:32:29;;;;;;;;;60.25;49.00;;;;;10.96;48.02;102727.84;5039010;28;45260;-77
2022/03/19 08:34:55;;;;;;;;;65.25;51.50;;;;;11.17;47.47;102740.94;5036866;28;45763;-79
2022/03/19 08:37:20;;;;;;;;;64.50;50.75;;;;;11.25;47.53;102742.13;5036600;28;45548;-77
2022/03/19 08:42:33;;;;;;;;;62.75;50.50;;;;;11.23;47.79;102735.91;5036174;28;45414;-79
2022/03/19 08:44:59;;;;;;;;;64.75;52.75;;;;;11.31;46.98;102729.16;5053786;28;45243;-79
2022/03/19 08:47:24;;;;;;;;;63.75;51.25;;;;;11.33;47.54;102728.38;5056699;28;44887;-77
2022/03/19 08:49:50;;;;;;;;;69.75;51.50;;;;;11.43;46.37;102733.13;5056821;28;46330;-78
2022/03/19 08:52:15;;;;;;;;;61.00;48.50;;;;;11.62;46.55;102739.97;5058813;28;44727;-77
2022/03/19 08:54:41;;;;;;;;;69.75;53.50;;;;;11.92;46.23;102741.94;5050361;28;44781;-76
2022/03/19 08:57:06;;;;;;;;;70.75;51.00;;;;;12.58;44.68;102737.03;5048727;28;45379;-77
2022/03/19 08:59:32;;;;;;;;;59.50;47.25;;;;;13.08;44.00;102724.41;5042660;28;45458;-77
2022/03/19 09:01:59;;;;;;;;;61.50;49.75;;;;;13.72;42.54;102722.69;5043071;28;45464;-75
2022/03/19 09:04:24;;;;;;;;;57.75;47.75;;;;;14.44;41.60;102722.72;5037745;28;45358;-76
2022/03/19 09:06:50;;;;;;;;;61.75;50.50;;;;;15.44;39.89;102723.97;5038446;28;45386;-80
2022/03/19 09:09:17;;;;;;;;;62.25;49.75;;;;;17.47;36.72;102713.75;5041895;28;45836;-82
2022/03/19 09:11:43;;;;;;;;;59.25;47.25;;;;;21.66;30.67;102712.84;5033795;28;45446;-77
2022/03/19 09:14:09;;;;;;;;;64.50;51.00;;;;;24.78;26.14;102706.88;5037881;28;45430;-76
2022/03/19 09:16:40;;;;;;;;;59.00;49.00;;;;;27.43;22.28;102714.44;5035161;28;45532;-76
2022/03/19 09:19:05;;;;;;;;;56.00;45.50;;;;;29.36;20.62;102703.94;5035524;28;45352;-74
2022/03/19 09:21:31;;;;;;;;;60.75;47.25;;;;;30.53;18.36;102697.19;5034772;28;45446;-78
2022/03/19 09:23:57;;;;;;;;;55.00;45.00;;;;;31.45;17.76;102707.34;5039902;28;45276;-82
2022/03/19 09:26:23;;;;;;;;;25.67;23.00;;;;;33.21;16.78;102687.13;5034962;28;45434;-77
2022/03/19 09:28:48;;;;;;;;;57.33;47.67;;;;;33.77;15.38;102700.25;5037246;28;45909;-77
2022/03/19 09:31:17;;;;;;;;;53.33;44.67;;;;;34.33;14.96;102689.59;5035317;28;46249;-81
2022/03/19 09:33:47;;;;;;;;;49.00;38.67;;;;;34.84;14.65;102674.50;5020585;28;45998;-84
2022/03/19 09:36:13;;;;;;;;;51.00;41.33;;;;;35.72;13.51;102675.09;5035826;28;45545;-80
2022/03/19 09:38:42;;;;;;;;;58.33;46.00;;;;;35.60;13.84;102690.53;5021708;28;46007;-77
2022/03/19 09:41:08;;;;;;;;;58.33;44.67;;;;;35.86;12.75;102637.53;5039324;28;45296;-74
2022/03/19 09:43:35;;;;;;;;;54.67;44.33;;;;;36.03;13.31;102685.75;5035220;28;45518;-75
2022/03/19 09:46:03;;;;;;;;;55.67;46.00;;;;;36.32;13.71;102685.56;5034289;28;45671;-75
2022/03/19 09:48:29;;;;;;;;;51.33;42.67;;;;;36.22;12.92;102666.13;5034416;28;45373;-76
2022/03/19 09:50:56;;;;;;;;;54.75;44.00;;;;;35.72;12.92;102644.94;5036019;28;45892;-75
2022/03/19 09:53:23;;;;;;;;;49.25;39.75;;;;;36.37;12.21;102653.19;5039967;28;45552;-78
2022/03/19 09:55:50;;;;;;;;;57.25;44.50;;;;;34.86;13.76;102672.53;5049379;28;45392;-77
2022/03/19 09:58:16;;;;;;;;;52.50;44.25;;;;;33.27;14.11;102640.34;5047102;28;45540;-76
2022/03/19 10:00:43;;;;;;;;;53.25;42.50;;;;;34.78;13.61;102634.69;5042809;28;45486;-80
2022/03/19 10:03:10;;;;;;;;;49.00;40.50;;;;;36.25;12.10;102671.41;5039444;28;45301;-78
2022/03/19 10:08:43;;;;;;;;;53.50;43.75;;;;;37.62;11.66;102639.28;5038933;28;45718;-80
2022/03/19 10:11:15;;;;;;;;;49.75;41.25;;;;;38.14;10.47;102654.44;5038305;28;45348;-80
2022/03/19 10:13:42;;;;;;;;;51.00;41.25;;;;;38.86;10.54;102656.06;5039152;28;45666;-78
2022/03/19 10:16:09;;;;;;;;;52.00;42.25;;;;;38.67;10.54;102638.28;5039304;28;45501;-80
2022/03/19 10:18:35;;;;;;;;;51.25;43.25;;;;;38.97;10.57;102645.00;5038482;28;45409;-80
2022/03/19 10:21:16;;;;;;;;;47.60;39.00;;;;;38.48;9.94;102646.28;5037093;28;45537;-78
2022/03/19 10:23:42;;;;;;;;;46.50;36.25;;;;;38.06;11.59;102640.41;5038932;28;45512;-81
2022/03/19 10:26:21;;;;;;;;;49.25;41.25;;;;;38.63;10.28;102635.88;5028631;28;45620;-80
2022/03/19 10:28:56;;;;;;;;;48.25;38.75;;;;;39.39;10.08;102623.13;5038646;28;45355;-78
2022/03/19 10:31:35;;;;;;;;;49.80;41.20;;;;;39.66;9.80;102606.13;5038287;28;45541;-79
2022/03/19 10:34:03;;;;;;;;;48.60;39.00;;;;;39.53;10.09;102611.78;5044968;28;45453;-76
2022/03/19 10:36:35;;;;;;;;;48.80;40.20;;;;;39.59;9.68;102605.75;5045502;28;45474;-77
2022/03/19 10:39:19;;;;;;;;;45.00;36.60;;;;;39.60;9.53;102624.94;5044012;28;46043;-79
2022/03/19 10:41:45;;;;;;;;;47.80;38.80;;;;;39.52;9.58;102627.44;5041325;28;45530;-81
2022/03/19 10:44:12;;;;;;;;;46.20;37.20;;;;;38.68;9.50;102579.44;5040968;28;45495;-80
2022/03/19 10:46:41;;;;;;;;;48.40;41.60;;;;;38.74;9.91;102613.88;5029890;28;45368;-79
2022/03/19 10:49:14;;;;;;;;;47.80;39.20;;;;;38.88;9.89;102618.22;5059800;28;45271;-80
2022/03/19 10:51:43;;;;;;;;;42.00;37.20;;;;;38.19;9.98;102597.16;5045498;28;45420;-79
2022/03/19 10:54:11;;;;;;;;;46.80;39.00;;;;;37.97;9.98;102608.13;5038614;28;45273;-76
2022/03/19 10:56:45;;;;;;;;;50.40;41.00;;;;;38.04;10.46;102598.38;5038707;28;45501;-76
2022/03/19 10:59:11;;;;;;;;;51.40;38.40;;;;;38.18;10.18;102616.56;5038308;28;45445;-78
2022/03/19 11:01:37;;;;;;;;;50.75;40.75;;;;;36.71;10.24;102577.47;5038566;28;45280;-78
2022/03/19 11:04:04;;;;;;;;;45.00;38.60;;;;;34.10;12.13;102606.25;5038170;28;45628;-82
2022/03/19 11:06:36;;;;;;;;;25.50;21.75;;;;;31.52;13.36;102541.75;5039403;28;45383;-80
2022/03/19 11:09:06;;;;;;;;;43.00;33.75;;;;;29.36;14.86;102586.28;5036400;28;45744;-79
2022/03/19 11:11:41;;;;;;;;;44.25;36.75;;;;;26.88;16.31;102572.75;5040352;28;45226;-82
2022/03/19 11:14:09;;;;;;;;;42.00;35.25;;;;;25.25;18.00;102540.44;5039890;28;45336;-81
2022/03/19 11:16:41;;;;;;;;;42.00;37.33;;;;;24.28;19.50;102598.25;5038493;28;45596;-82
2022/03/19 11:19:08;;;;;;;;;47.33;37.00;;;;;23.16;19.97;102553.59;5036777;28;45982;-77
2022/03/19 11:21:34;;;;;;;;;54.33;44.33;;;;;22.48;21.02;102585.91;5047562;28;45621;-80
2022/03/19 11:24:23;;;;;;;;;45.33;37.33;;;;;21.92;21.44;102583.84;5042372;28;45609;-79
2022/03/19 11:26:51;;;;;;;;;52.67;40.33;;;;;21.44;21.86;102577.16;5038141;28;45414;-82
2022/03/19 11:29:18;;;;;;;;;32.67;28.00;;;;;20.77;22.89;102575.78;5037681;28;46002;-82
2022/03/19 11:31:56;;;;;;;;;50.33;41.33;;;;;20.20;23.44;102570.66;5037760;28;45559;-81
2022/03/19 11:34:22;;;;;;;;;51.00;41.67;;;;;19.83;23.92;102553.81;5038121;28;45354;-83
2022/03/19 11:36:58;;;;;;;;;50.33;41.33;;;;;19.67;24.51;102573.44;5038149;28;45788;-82